Time;durP1;ratioP1;P1;durP2;ratioP2;P2;SDS_P1;SDS_P2;PMS_P1;PMS_P2;Temp;Humidity;BMP_temperature;BMP_pressure;BME280_temperature;BME280_humidity;BME280_pressure;Samples;Min_cycle;Max_cycle;Signal;HPM_P1;HPM_P2
2022/12/07 05:30:26;;;;;;;;;26.33;23.67;;;;;;;;5668352;24;46535;31
2022/12/07 05:32:51;;;;;;;;;32.00;27.00;;;;;;;;4645897;30;46864;-63
2022/12/07 05:35:17;;;;;;;;;39.50;27.75;;;;;;;;4640596;30;46097;-63
2022/12/07 05:37:42;;;;;;;;;30.00;27.75;;;;;;;;4639951;30;45313;-63
2022/12/07 05:40:08;;;;;;;;;33.25;28.25;;;;;;;;4640922;30;45388;-63
2022/12/07 05:42:33;;;;;;;;;35.50;28.75;;;;;;;;4650033;30;45579;-63
2022/12/07 05:44:58;;;;;;;;;33.25;28.50;;;;;;;;4644092;30;45697;-63
2022/12/07 05:47:23;;;;;;;;;33.75;28.25;;;;;;;;4648696;30;45654;-63
2022/12/07 05:49:48;;;;;;;;;20.00;19.50;;;;;;;;4649122;30;45427;-64
2022/12/07 05:52:14;;;;;;;;;30.25;27.00;;;;;;;;4647312;30;45663;-63
2022/12/07 05:54:39;;;;;;;;;38.00;29.50;;;;;;;;4638883;30;46306;-63
2022/12/07 05:57:04;;;;;;;;;33.50;26.50;;;;;;;;4640739;30;45279;-63
2022/12/07 05:59:29;;;;;;;;;40.00;33.50;;;;;;;;4640987;30;45398;-64
2022/12/07 06:02:00;;;;;;;;;44.00;36.75;;;;;;;;4637037;30;45699;-64
2022/12/07 06:04:26;;;;;;;;;49.00;32.50;;;;;;;;4643052;30;47163;-64
2022/12/07 06:06:51;;;;;;;;;40.50;36.50;;;;;;;;4661284;30;45317;-64
2022/12/07 06:09:18;;;;;;;;;31.75;29.25;;;;;;;;4659626;30;45716;-64
2022/12/07 06:14:27;;;;;;;;;32.25;28.75;;;;;;;;4660560;30;45356;-63
2022/12/07 06:16:52;;;;;;;;;36.75;32.25;;;;;;;;4664268;30;45248;-63
2022/12/07 06:19:17;;;;;;;;;30.25;24.75;;;;;;;;4661189;30;45270;-63
2022/12/07 06:21:42;;;;;;;;;32.00;21.50;;;;;;;;4661676;30;45176;-63
2022/12/07 06:24:10;;;;;;;;;33.50;28.75;;;;;;;;4655608;30;46294;-63
2022/12/07 06:26:35;;;;;;;;;36.50;31.75;;;;;;;;4664544;30;45448;-63
2022/12/07 06:29:00;;;;;;;;;32.25;28.25;;;;;;;;4667425;30;45389;-64
2022/12/07 06:31:25;;;;;;;;;48.00;37.25;;;;;;;;4670072;30;45782;-63
2022/12/07 06:33:51;;;;;;;;;33.00;31.75;;;;;;;;4675666;30;46756;-63
2022/12/07 06:36:16;;;;;;;;;39.25;32.00;;;;;;;;4682846;30;45413;-63
2022/12/07 06:38:41;;;;;;;;;37.25;29.00;;;;;;;;4680408;30;45417;-63
2022/12/07 06:41:06;;;;;;;;;30.50;26.75;;;;;;;;4683802;30;45564;-70
2022/12/07 06:43:32;;;;;;;;;32.00;26.75;;;;;;;;4680758;30;46213;-63
2022/12/07 06:45:57;;;;;;;;;38.00;32.00;;;;;;;;4681429;30;45442;-63
2022/12/07 06:48:22;;;;;;;;;27.75;25.00;;;;;;;;4679195;30;45677;-63
2022/12/07 06:50:48;;;;;;;;;37.75;32.50;;;;;;;;4678990;30;45441;-64
2022/12/07 06:53:13;;;;;;;;;43.25;28.25;;;;;;;;4682383;30;45435;-63
2022/12/07 06:55:38;;;;;;;;;37.25;28.00;;;;;;;;4677508;30;46014;-63
2022/12/07 06:58:03;;;;;;;;;39.00;31.50;;;;;;;;4685435;30;45408;-63
2022/12/07 07:00:29;;;;;;;;;45.75;28.25;;;;;;;;4681144;30;45301;-63
2022/12/07 07:02:54;;;;;;;;;33.50;30.50;;;;;;;;4683079;30;45512;-62
2022/12/07 07:05:21;;;;;;;;;33.25;30.50;;;;;;;;4683419;30;45410;-63
2022/12/07 07:07:47;;;;;;;;;42.25;25.75;;;;;;;;4682784;30;45301;-63
2022/12/07 07:10:13;;;;;;;;;36.50;34.25;;;;;;;;4685176;30;45231;-63
2022/12/07 07:12:38;;;;;;;;;35.50;27.25;;;;;;;;4681926;30;46387;-63
2022/12/07 07:15:04;;;;;;;;;34.50;28.00;;;;;;;;4681981;30;45508;-63
2022/12/07 07:17:30;;;;;;;;;33.25;29.75;;;;;;;;4667753;30;45686;-63
2022/12/07 07:19:55;;;;;;;;;32.75;24.25;;;;;;;;4679552;30;45550;-62
2022/12/07 07:22:20;;;;;;;;;33.00;28.25;;;;;;;;4678201;30;46210;-67
2022/12/07 07:24:45;;;;;;;;;36.25;28.75;;;;;;;;4680656;30;45498;-67
2022/12/07 07:27:10;;;;;;;;;32.25;23.50;;;;;;;;4684134;30;45542;-67
2022/12/07 07:29:36;;;;;;;;;37.25;32.25;;;;;;;;4679703;30;45599;-67
2022/12/07 07:32:01;;;;;;;;;32.25;32.25;;;;;;;;4679057;30;47249;-67
2022/12/07 07:34:26;;;;;;;;;36.00;29.25;;;;;;;;4676232;30;45384;-67
2022/12/07 07:36:51;;;;;;;;;34.50;33.25;;;;;;;;4679202;30;45729;-67
2022/12/07 07:39:16;;;;;;;;;38.50;30.50;;;;;;;;4686225;30;45281;-67
2022/12/07 07:41:42;;;;;;;;;31.00;28.75;;;;;;;;4670464;30;46111;-68
2022/12/07 07:44:07;;;;;;;;;33.00;28.25;;;;;;;;4671116;30;45738;-67
2022/12/07 07:46:33;;;;;;;;;35.50;32.25;;;;;;;;4673036;30;45543;-67
2022/12/07 07:48:58;;;;;;;;;37.25;27.50;;;;;;;;4679553;30;45378;-65
2022/12/07 07:51:23;;;;;;;;;28.00;27.50;;;;;;;;4676766;30;46529;-68
2022/12/07 07:53:48;;;;;;;;;24.50;21.75;;;;;;;;4681808;30;45682;-67
2022/12/07 07:56:13;;;;;;;;;33.25;29.75;;;;;;;;4676490;30;45440;-67
2022/12/07 07:58:39;;;;;;;;;30.75;26.75;;;;;;;;4677789;30;45440;-67
2022/12/07 08:01:05;;;;;;;;;30.00;24.50;;;;;;;;4673976;30;46205;-67
2022/12/07 08:03:30;;;;;;;;;37.50;33.00;;;;;;;;4680859;30;45464;-65
2022/12/07 08:05:55;;;;;;;;;37.50;31.50;;;;;;;;4677100;30;45607;-66
2022/12/07 08:08:20;;;;;;;;;39.75;30.00;;;;;;;;4673740;30;45233;-66
2022/12/07 08:10:46;;;;;;;;;42.75;35.75;;;;;;;;4680923;30;46386;-67
2022/12/07 08:13:11;;;;;;;;;41.50;35.00;;;;;;;;4672827;30;45559;-66
2022/12/07 08:15:37;;;;;;;;;45.75;37.75;;;;;;;;4682774;30;45510;-66
2022/12/07 08:18:03;;;;;;;;;34.00;33.00;;;;;;;;4684509;30;45247;-67
2022/12/07 08:20:29;;;;;;;;;40.25;35.00;;;;;;;;4676052;30;46364;-66
2022/12/07 08:22:54;;;;;;;;;43.25;33.75;;;;;;;;4680207;30;45431;-67
2022/12/07 08:25:21;;;;;;;;;46.50;38.00;;;;;;;;4674779;30;45578;-66
2022/12/07 08:27:47;;;;;;;;;38.75;35.75;;;;;;;;4679423;30;45499;-67
2022/12/07 08:30:12;;;;;;;;;48.25;36.00;;;;;;;;4671384;30;45338;-65
2022/12/07 08:32:37;;;;;;;;;44.00;35.50;;;;;;;;4683113;30;45327;-66
2022/12/07 08:35:03;;;;;;;;;47.25;38.00;;;;;;;;4685519;30;45338;-66
2022/12/07 08:37:28;;;;;;;;;44.50;36.50;;;;;;;;4680091;30;45549;-66
2022/12/07 08:39:54;;;;;;;;;40.25;36.00;;;;;;;;4675405;30;46264;-67
2022/12/07 08:42:19;;;;;;;;;47.00;37.25;;;;;;;;4676306;30;45460;-66
2022/12/07 08:44:45;;;;;;;;;38.25;32.25;;;;;;;;4681832;30;46087;-67
2022/12/07 08:47:11;;;;;;;;;43.25;32.00;;;;;;;;4671766;30;45676;-67
2022/12/07 08:49:39;;;;;;;;;43.75;36.25;;;;;;;;4684478;30;45345;-67
2022/12/07 08:52:04;;;;;;;;;44.25;36.00;;;;;;;;4683805;30;45378;-68
2022/12/07 08:54:29;;;;;;;;;50.50;39.25;;;;;;;;4675447;30;45451;-68
2022/12/07 08:56:56;;;;;;;;;43.25;37.25;;;;;;;;4671733;30;45643;-67
2022/12/07 08:59:21;;;;;;;;;45.00;38.25;;;;;;;;4674819;30;45579;-68
2022/12/07 09:01:46;;;;;;;;;40.00;36.00;;;;;;;;4670514;30;45448;-67
2022/12/07 09:04:12;;;;;;;;;50.00;38.75;;;;;;;;4679383;30;45361;-67
2022/12/07 09:06:37;;;;;;;;;49.50;41.75;;;;;;;;4677096;30;45710;-67
2022/12/07 09:09:03;;;;;;;;;44.75;38.25;;;;;;;;4679259;30;45557;-68
2022/12/07 09:11:28;;;;;;;;;43.50;35.75;;;;;;;;4669966;30;45447;-67
2022/12/07 09:13:53;;;;;;;;;48.00;41.00;;;;;;;;4683510;30;45423;-67
2022/12/07 09:16:18;;;;;;;;;55.25;39.75;;;;;;;;4677907;30;45569;-67
2022/12/07 09:18:43;;;;;;;;;46.50;39.00;;;;;;;;4675022;30;46352;-67
2022/12/07 09:21:09;;;;;;;;;52.00;39.00;;;;;;;;4676141;30;45364;-67
2022/12/07 09:23:34;;;;;;;;;48.25;41.75;;;;;;;;4674659;30;45571;-67
2022/12/07 09:26:00;;;;;;;;;46.25;37.00;;;;;;;;4677565;30;45496;-67
2022/12/07 09:28:25;;;;;;;;;43.75;35.75;;;;;;;;4671676;30;46365;-67
2022/12/07 09:30:50;;;;;;;;;53.75;39.00;;;;;;;;4673585;30;45558;-67
2022/12/07 09:33:16;;;;;;;;;47.25;39.50;;;;;;;;4671419;30;45865;-66
2022/12/07 09:35:48;;;;;;;;;48.00;37.50;;;;;;;;4681459;30;45463;-67
2022/12/07 09:38:13;;;;;;;;;47.00;37.25;;;;;;;;4677999;30;46233;-68
2022/12/07 09:40:39;;;;;;;;;47.00;38.00;;;;;;;;4667814;30;45393;-67
2022/12/07 09:43:04;;;;;;;;;47.25;37.75;;;;;;;;4676687;30;45499;-67
2022/12/07 09:45:34;;;;;;;;;52.75;40.00;;;;;;;;4678132;30;45484;-67
2022/12/07 09:47:59;;;;;;;;;48.50;39.00;;;;;;;;4672702;30;46155;-67
2022/12/07 09:50:25;;;;;;;;;46.75;38.50;;;;;;;;4674886;30;45362;-67
2022/12/07 09:52:52;;;;;;;;;46.50;38.25;;;;;;;;4676752;30;45628;-67
2022/12/07 09:55:25;;;;;;;;;43.75;37.75;;;;;;;;4678432;30;45739;-67
2022/12/07 09:57:51;;;;;;;;;44.25;38.50;;;;;;;;4679427;30;46269;-67
2022/12/07 10:00:19;;;;;;;;;53.50;37.75;;;;;;;;4679584;30;45607;-67
2022/12/07 10:02:46;;;;;;;;;41.75;34.75;;;;;;;;4680966;30;45605;-67
2022/12/07 10:05:14;;;;;;;;;45.50;34.25;;;;;;;;4681200;30;45432;-66
2022/12/07 10:07:39;;;;;;;;;48.75;38.75;;;;;;;;4681099;30;46464;-66
2022/12/07 10:10:12;;;;;;;;;38.00;34.50;;;;;;;;4675153;30;45322;-67
2022/12/07 10:12:52;;;;;;;;;46.00;37.75;;;;;;;;4687683;30;45431;-66
2022/12/07 10:15:17;;;;;;;;;43.25;36.00;;;;;;;;4682444;30;45503;-67
2022/12/07 10:17:48;;;;;;;;;51.00;38.00;;;;;;;;4680832;30;47074;-66
2022/12/07 10:20:19;;;;;;;;;42.75;37.75;;;;;;;;4684536;30;45539;-66
2022/12/07 10:22:56;;;;;;;;;55.75;41.25;;;;;;;;4684433;30;45464;-66
2022/12/07 10:25:23;;;;;;;;;54.00;41.25;;;;;;;;4682050;30;45649;-66
2022/12/07 10:27:58;;;;;;;;;54.50;42.25;;;;;;;;4687198;30;45313;-67
2022/12/07 10:30:24;;;;;;;;;49.75;38.50;;;;;;;;4672384;30;45612;-66
2022/12/07 10:32:49;;;;;;;;;53.25;40.75;;;;;;;;4680276;30;45210;-67
2022/12/07 10:35:19;;;;;;;;;56.75;43.75;;;;;;;;4680015;30;45427;-67
2022/12/07 10:37:45;;;;;;;;;52.00;40.25;;;;;;;;4676601;30;46228;-67
2022/12/07 10:40:23;;;;;;;;;52.00;38.75;;;;;;;;4680259;30;45419;-67
2022/12/07 10:43:00;;;;;;;;;48.00;39.75;;;;;;;;4691892;30;45361;-67
2022/12/07 10:45:25;;;;;;;;;45.75;36.50;;;;;;;;4683035;30;45602;-67
2022/12/07 10:48:11;;;;;;;;;49.25;38.00;;;;;;;;4689825;30;46532;-67
2022/12/07 10:50:55;;;;;;;;;56.25;41.75;;;;;;;;4682605;30;45444;-66
2022/12/07 10:53:26;;;;;;;;;49.25;39.75;;;;;;;;4678263;30;45871;-66
2022/12/07 10:56:09;;;;;;;;;49.50;39.25;;;;;;;;4680932;30;45528;-67
2022/12/07 10:58:35;;;;;;;;;54.00;39.25;;;;;;;;4677292;30;47273;-67
2022/12/07 11:01:19;;;;;;;;;46.00;35.75;;;;;;;;4680631;30;45781;-66
2022/12/07 11:03:50;;;;;;;;;49.00;39.25;;;;;;;;4689782;30;45503;-68
2022/12/07 11:06:47;;;;;;;;;47.25;39.00;;;;;;;;4685029;30;45639;-66
2022/12/07 11:09:24;;;;;;;;;47.25;38.50;;;;;;;;4652308;30;46711;-67
2022/12/07 11:11:52;;;;;;;;;50.75;37.75;;;;;;;;4686922;30;46075;-68
2022/12/07 11:14:20;;;;;;;;;46.25;37.50;;;;;;;;4681371;30;45460;-67
2022/12/07 11:16:45;;;;;;;;;48.75;39.50;;;;;;;;4679624;30;45544;-67
2022/12/07 11:19:14;;;;;;;;;44.25;36.75;;;;;;;;4679633;30;45994;-67
2022/12/07 11:21:58;;;;;;;;;42.67;35.67;;;;;;;;4684069;30;45427;-68
2022/12/07 11:24:30;;;;;;;;;47.33;36.00;;;;;;;;4669242;30;45586;-67
2022/12/07 11:26:58;;;;;;;;;42.67;33.33;;;;;;;;4678298;30;45639;-67
2022/12/07 11:29:27;;;;;;;;;41.33;34.00;;;;;;;;4682402;30;45464;-67
2022/12/07 11:31:56;;;;;;;;;40.00;32.67;;;;;;;;4680167;30;45243;-66
2022/12/07 11:34:30;;;;;;;;;36.67;33.67;;;;;;;;4679295;30;45357;-67
2022/12/07 11:36:56;;;;;;;;;39.33;34.00;;;;;;;;4672053;30;45599;-66
2022/12/07 11:39:21;;;;;;;;;38.67;33.67;;;;;;;;4679502;30;46395;-66
2022/12/07 11:41:54;;;;;;;;;46.67;34.33;;;;;;;;4663386;30;45496;-66
2022/12/07 11:44:29;;;;;;;;;37.33;34.00;;;;;;;;4682998;30;45349;-67
2022/12/07 11:47:13;;;;;;;;;43.67;35.67;;;;;;;;4670135;30;45448;-68
2022/12/07 11:49:38;;;;;;;;;37.33;34.00;;;;;;;;4681644;30;45969;-67
2022/12/07 11:52:05;;;;;;;;;42.33;33.67;;;;;;;;4677261;30;45415;-69
2022/12/07 11:54:34;;;;;;;;;36.67;31.33;;;;;;;;4677178;30;45617;-68
2022/12/07 11:57:03;;;;;;;;;41.67;35.00;;;;;;;;4679037;30;45401;-68
2022/12/07 12:00:01;;;;;;;;;37.67;34.00;;;;;;;;4675818;30;46380;-68
2022/12/07 12:02:32;;;;;;;;;43.33;37.33;;;;;;;;4650706;30;45502;-68
2022/12/07 12:05:15;;;;;;;;;36.67;33.33;;;;;;;;4678713;30;45810;-68
2022/12/07 12:07:41;;;;;;;;;42.67;36.00;;;;;;;;4677440;30;45564;-68
2022/12/07 12:10:16;;;;;;;;;45.67;33.67;;;;;;;;4681822;30;47044;-68
2022/12/07 12:12:54;;;;;;;;;45.00;34.67;;;;;;;;4678922;30;45562;-70
2022/12/07 12:15:32;;;;;;;;;34.67;32.00;;;;;;;;4664951;30;45596;-69
2022/12/07 12:17:58;;;;;;;;;38.33;32.33;;;;;;;;4667940;30;45657;-69
2022/12/07 12:20:23;;;;;;;;;38.33;34.33;;;;;;;;4680206;30;45533;-69
2022/12/07 12:22:53;;;;;;;;;44.67;36.67;;;;;;;;4678723;30;45551;-69
2022/12/07 12:25:30;;;;;;;;;40.00;34.00;;;;;;;;4674771;30;45429;-68
2022/12/07 12:27:57;;;;;;;;;46.67;34.33;;;;;;;;4680151;30;45658;-68
2022/12/07 12:30:25;;;;;;;;;38.33;33.67;;;;;;;;4682885;30;46101;-68
2022/12/07 12:32:51;;;;;;;;;47.33;38.00;;;;;;;;4677371;30;45448;-67
2022/12/07 12:35:23;;;;;;;;;42.00;33.33;;;;;;;;4664822;30;45412;-67
2022/12/07 12:37:48;;;;;;;;;48.67;38.33;;;;;;;;4680969;30;45445;-68
2022/12/07 12:40:16;;;;;;;;;41.67;34.67;;;;;;;;4680334;30;46051;-68
2022/12/07 12:42:49;;;;;;;;;33.67;30.67;;;;;;;;4681036;30;45309;-68
2022/12/07 12:45:20;;;;;;;;;40.33;34.33;;;;;;;;4677612;30;45397;-67
2022/12/07 12:47:52;;;;;;;;;35.00;32.00;;;;;;;;4681300;30;45420;-67
2022/12/07 12:50:18;;;;;;;;;36.00;34.00;;;;;;;;4678666;30;45583;-68
2022/12/07 12:52:43;;;;;;;;;33.00;32.00;;;;;;;;4682374;30;45888;-68
2022/12/07 12:55:08;;;;;;;;;33.67;31.67;;;;;;;;4677643;30;45811;-68
2022/12/07 12:57:33;;;;;;;;;36.00;31.00;;;;;;;;4679455;30;45813;-68
2022/12/07 12:59:59;;;;;;;;;34.00;30.00;;;;;;;;4679377;30;46300;-68
2022/12/07 13:02:29;;;;;;;;;22.00;22.00;;;;;;;;4671234;30;45273;-67
2022/12/07 13:04:54;;;;;;;;;25.00;24.00;;;;;;;;4677655;30;45550;-68
2022/12/07 13:07:40;;;;;;;;;30.33;26.33;;;;;;;;4663924;30;45727;-68
2022/12/07 13:10:20;;;;;;;;;18.67;18.67;;;;;;;;4654431;30;45578;-68
2022/12/07 13:12:54;;;;;;;;;22.33;19.67;;;;;;;;4674036;30;45770;-67
2022/12/07 13:15:32;;;;;;;;;18.67;18.33;;;;;;;;4679139;30;45395;-68
2022/12/07 13:18:00;;;;;;;;;20.67;19.00;;;;;;;;4681610;30;45357;-67
2022/12/07 13:20:43;;;;;;;;;21.67;17.00;;;;;;;;4676005;30;46214;-67
2022/12/07 13:23:08;;;;;;;;;21.67;21.00;;;;;;;;4677545;30;45377;-67
2022/12/07 13:25:37;;;;;;;;;20.33;18.33;;;;;;;;4670820;30;45406;-67
2022/12/07 13:28:03;;;;;;;;;28.67;24.00;;;;;;;;4675485;30;45383;-68
2022/12/07 13:30:29;;;;;;;;;25.67;19.67;;;;;;;;4679201;30;46102;-67
2022/12/07 13:32:55;;;;;;;;;21.67;20.67;;;;;;;;4674674;30;46619;-68
2022/12/07 13:35:29;;;;;;;;;27.00;25.00;;;;;;;;4674237;30;45428;-67
2022/12/07 13:37:55;;;;;;;;;27.33;23.00;;;;;;;;4682770;30;45512;-67
2022/12/07 13:40:21;;;;;;;;;26.00;23.00;;;;;;;;4675831;30;46357;-67
2022/12/07 13:42:46;;;;;;;;;29.33;24.00;;;;;;;;4678181;30;45419;-67
2022/12/07 13:45:49;;;;;;;;;28.33;24.33;;;;;;;;4669564;30;45538;-67
2022/12/07 13:48:33;;;;;;;;;27.00;24.33;;;;;;;;4675317;30;45599;-65
2022/12/07 13:50:59;;;;;;;;;24.00;23.00;;;;;;;;4673384;30;46161;-64
2022/12/07 13:53:24;;;;;;;;;25.00;25.00;;;;;;;;4670848;30;46620;-67
2022/12/07 13:55:50;;;;;;;;;20.67;18.67;;;;;;;;4672526;30;45894;-68
2022/12/07 13:58:15;;;;;;;;;19.67;19.67;;;;;;;;4677497;30;45416;-68
2022/12/07 14:00:41;;;;;;;;;30.67;20.33;;;;;;;;4672121;30;45791;-68
2022/12/07 14:03:12;;;;;;;;;21.00;19.00;;;;;;;;4670550;30;45402;-68
2022/12/07 14:05:38;;;;;;;;;20.00;18.67;;;;;;;;4676332;30;45429;-68
2022/12/07 14:08:05;;;;;;;;;18.33;17.33;;;;;;;;4677419;30;45513;-68
2022/12/07 14:10:41;;;;;;;;;15.33;13.67;;;;;;;;4673851;30;47031;-68
2022/12/07 14:13:25;;;;;;;;;16.33;16.00;;;;;;;;4671977;30;45492;-68
2022/12/07 14:15:51;;;;;;;;;14.00;14.00;;;;;;;;4672968;30;45558;-68
2022/12/07 14:18:46;;;;;;;;;23.33;15.00;;;;;;;;4679884;30;45591;-68
2022/12/07 14:21:19;;;;;;;;;16.67;15.33;;;;;;;;4664133;30;46513;-65
2022/12/07 14:23:45;;;;;;;;;24.67;19.00;;;;;;;;4678828;30;45446;-67
2022/12/07 14:26:14;;;;;;;;;22.00;20.67;;;;;;;;4669476;30;45536;-67
2022/12/07 14:28:41;;;;;;;;;18.67;18.67;;;;;;;;4679925;30;46798;-67
2022/12/07 14:31:13;;;;;;;;;21.67;20.00;;;;;;;;4676922;30;45470;-67
2022/12/07 14:33:39;;;;;;;;;25.67;21.33;;;;;;;;4674656;30;45445;-67
2022/12/07 14:36:05;;;;;;;;;23.00;21.00;;;;;;;;4672643;30;45365;-67
2022/12/07 14:38:30;;;;;;;;;20.00;17.00;;;;;;;;4678342;30;45565;-67
2022/12/07 14:41:50;;;;;;;;;18.67;17.00;;;;;;;;4673860;30;46080;-67
2022/12/07 14:43:44;;;;;;;;;25.33;18.33;;;;;;;;4681853;30;45821;-67
2022/12/07 14:46:09;;;;;;;;;29.33;21.33;;;;;;;;4677575;30;45618;-67
2022/12/07 14:48:34;;;;;;;;;22.33;20.00;;;;;;;;4679504;30;45500;-67
2022/12/07 14:51:00;;;;;;;;;18.33;16.67;;;;;;;;4677061;30;46042;-67
2022/12/07 14:53:29;;;;;;;;;19.67;16.67;;;;;;;;4671292;30;45706;-68
2022/12/07 14:55:54;;;;;;;;;19.33;14.33;;;;;;;;4672294;30;45693;-67
2022/12/07 14:58:20;;;;;;;;;16.00;13.67;;;;;;;;4673720;30;45501;-67
2022/12/07 15:00:45;;;;;;;;;20.67;13.00;;;;;;;;4680321;30;45332;-67
2022/12/07 15:03:12;;;;;;;;;15.67;13.33;;;;;;;;4675227;30;45454;-67
2022/12/07 15:05:38;;;;;;;;;18.67;16.00;;;;;;;;4662883;30;45421;-68
2022/12/07 15:08:03;;;;;;;;;20.00;17.00;;;;;;;;4673913;30;45635;-67
2022/12/07 15:10:31;;;;;;;;;17.33;16.00;;;;;;;;4681534;30;45596;-67
2022/12/07 15:14:07;;;;;;;;;25.67;18.67;;;;;;;;4678589;30;45525;-67
2022/12/07 15:15:42;;;;;;;;;26.00;22.33;;;;;;;;4680774;30;45587;-68
2022/12/07 15:18:07;;;;;;;;;18.33;16.33;;;;;;;;4679413;30;45594;-68
2022/12/07 15:20:32;;;;;;;;;21.33;19.00;;;;;;;;4684179;30;45563;-68
2022/12/07 15:22:58;;;;;;;;;22.67;22.33;;;;;;;;4675744;30;45613;-67
2022/12/07 15:25:23;;;;;;;;;28.33;22.33;;;;;;;;4681251;30;45485;-67
2022/12/07 15:27:48;;;;;;;;;23.00;18.00;;;;;;;;4681042;30;45330;-68
2022/12/07 15:30:13;;;;;;;;;33.00;18.00;;;;;;;;4683101;30;46994;-67
2022/12/07 15:32:38;;;;;;;;;16.67;16.67;;;;;;;;4684656;30;45403;-67
2022/12/07 15:35:04;;;;;;;;;18.00;15.33;;;;;;;;4678662;30;46628;-68
2022/12/07 15:37:29;;;;;;;;;22.33;19.00;;;;;;;;4682012;30;45525;-68
2022/12/07 15:39:54;;;;;;;;;22.33;18.33;;;;;;;;4680563;30;46256;-68
2022/12/07 15:42:19;;;;;;;;;26.33;21.00;;;;;;;;4683572;30;45701;-67
2022/12/07 15:45:03;;;;;;;;;30.33;23.33;;;;;;;;4683955;30;45780;-67
2022/12/07 15:47:28;;;;;;;;;19.67;19.67;;;;;;;;4680387;30;45359;-68
2022/12/07 15:49:54;;;;;;;;;27.00;21.00;;;;;;;;4680803;30;45629;-68
2022/12/07 15:52:19;;;;;;;;;23.00;22.67;;;;;;;;4682920;30;45691;-67
2022/12/07 15:54:44;;;;;;;;;27.67;22.00;;;;;;;;4684811;30;45619;-67
2022/12/07 15:57:09;;;;;;;;;21.00;18.33;;;;;;;;4667774;30;45409;-68
2022/12/07 15:59:35;;;;;;;;;23.67;21.67;;;;;;;;4674940;30;46194;-67
2022/12/07 16:02:00;;;;;;;;;23.33;23.33;;;;;;;;4682075;30;45531;-67
2022/12/07 16:04:26;;;;;;;;;28.33;24.33;;;;;;;;4684042;30;45453;-67
2022/12/07 16:06:51;;;;;;;;;25.33;23.33;;;;;;;;4681684;30;45629;-67
2022/12/07 16:09:17;;;;;;;;;26.67;22.33;;;;;;;;4682824;30;46309;-67
2022/12/07 16:11:42;;;;;;;;;25.33;24.00;;;;;;;;4679797;30;45281;-68
2022/12/07 16:14:07;;;;;;;;;26.00;22.00;;;;;;;;4675944;30;45587;-68
2022/12/07 16:16:32;;;;;;;;;27.33;20.67;;;;;;;;4677206;30;45599;-68
2022/12/07 16:18:58;;;;;;;;;20.33;20.33;;;;;;;;4675865;30;46219;-68
2022/12/07 16:21:23;;;;;;;;;23.00;18.33;;;;;;;;4682741;30;45654;-68
2022/12/07 16:23:48;;;;;;;;;24.00;24.00;;;;;;;;4684008;30;45365;-68
2022/12/07 16:26:16;;;;;;;;;28.00;22.00;;;;;;;;4677409;30;45820;-68
2022/12/07 16:28:41;;;;;;;;;19.33;15.33;;;;;;;;4679012;30;47090;-68
2022/12/07 16:31:14;;;;;;;;;29.00;28.00;;;;;;;;4684110;30;45319;-68
2022/12/07 16:33:40;;;;;;;;;31.00;21.67;;;;;;;;4681664;30;45579;-68
2022/12/07 16:36:06;;;;;;;;;24.00;22.67;;;;;;;;4675418;30;45290;-68
2022/12/07 16:38:31;;;;;;;;;27.00;21.33;;;;;;;;4675488;30;45424;-68
2022/12/07 16:40:56;;;;;;;;;35.00;24.00;;;;;;;;4679904;30;45300;-66
2022/12/07 16:43:21;;;;;;;;;29.00;24.00;;;;;;;;4676686;30;45283;-65
2022/12/07 16:45:47;;;;;;;;;29.67;25.33;;;;;;;;4672863;30;45454;-65
2022/12/07 16:48:13;;;;;;;;;33.00;28.00;;;;;;;;4677677;30;45337;-65
2022/12/07 16:50:39;;;;;;;;;29.00;28.00;;;;;;;;4655534;30;45602;-65
2022/12/07 16:53:04;;;;;;;;;28.00;22.00;;;;;;;;4680398;30;45373;-65
2022/12/07 16:55:30;;;;;;;;;28.00;23.67;;;;;;;;4666742;30;45642;-65
2022/12/07 16:57:55;;;;;;;;;28.67;26.00;;;;;;;;4680520;30;45468;-65
2022/12/07 17:00:21;;;;;;;;;25.00;22.67;;;;;;;;4678865;30;45357;-66
2022/12/07 17:02:46;;;;;;;;;34.00;29.33;;;;;;;;4675095;30;45268;-66
2022/12/07 17:05:11;;;;;;;;;33.00;28.00;;;;;;;;4681383;30;45212;-66
2022/12/07 17:07:37;;;;;;;;;30.33;25.00;;;;;;;;4678655;30;45518;-65
2022/12/07 17:10:02;;;;;;;;;30.33;27.33;;;;;;;;4678502;30;45455;-65
2022/12/07 17:12:28;;;;;;;;;34.00;29.33;;;;;;;;4674666;30;45816;-65
2022/12/07 17:17:37;;;;;;;;;39.67;30.33;;;;;;;;4670554;30;45366;-65
2022/12/07 17:20:03;;;;;;;;;33.33;28.33;;;;;;;;4669094;30;45396;-66
2022/12/07 17:22:28;;;;;;;;;34.00;28.67;;;;;;;;4675909;30;45720;-65
2022/12/07 17:24:54;;;;;;;;;27.00;24.00;;;;;;;;4679443;30;45520;-65
2022/12/07 17:27:19;;;;;;;;;32.00;24.00;;;;;;;;4674665;30;46304;-65
2022/12/07 17:29:44;;;;;;;;;39.33;34.00;;;;;;;;4674938;30;45552;-65
2022/12/07 17:32:09;;;;;;;;;47.00;37.00;;;;;;;;4677024;30;45805;-65
2022/12/07 17:34:36;;;;;;;;;47.50;36.75;;;;;;;;4658602;30;45404;-65
2022/12/07 17:37:02;;;;;;;;;41.33;35.67;;;;;;;;4676124;30;46339;-65
2022/12/07 17:39:28;;;;;;;;;49.50;37.00;;;;;;;;4671163;30;45417;-65
2022/12/07 17:44:37;;;;;;;;;42.25;35.25;;;;;;;;4669114;30;45658;-65
2022/12/07 17:47:03;;;;;;;;;46.25;39.25;;;;;;;;4679868;30;46318;-65
2022/12/07 17:49:28;;;;;;;;;42.67;36.33;;;;;;;;4682977;30;45443;-65
2022/12/07 17:54:37;;;;;;;;;35.00;31.67;;;;;;;;4673953;30;45534;-65
2022/12/07 17:57:02;;;;;;;;;40.00;34.50;;;;;;;;4674092;30;45511;-65
2022/12/07 17:59:28;;;;;;;;;39.25;36.25;;;;;;;;4671252;30;45290;-65
2022/12/07 18:01:53;;;;;;;;;47.75;38.50;;;;;;;;4655854;30;45467;-65
2022/12/07 18:04:18;;;;;;;;;46.25;37.00;;;;;;;;4668260;30;45496;-64
2022/12/07 18:06:43;;;;;;;;;47.25;37.00;;;;;;;;4671243;30;46034;-65
2022/12/07 18:09:09;;;;;;;;;45.25;38.00;;;;;;;;4672636;30;45577;-64
2022/12/07 18:11:35;;;;;;;;;52.00;40.50;;;;;;;;4675731;30;45380;-64
2022/12/07 18:14:00;;;;;;;;;52.50;42.00;;;;;;;;4680130;30;45332;-64
2022/12/07 18:16:26;;;;;;;;;44.75;35.75;;;;;;;;4680822;30;45839;-64
2022/12/07 18:18:52;;;;;;;;;18.00;18.00;;;;;;;;4675559;30;45381;-64
2022/12/07 18:21:20;;;;;;;;;48.25;38.50;;;;;;;;4677519;30;45267;-65
2022/12/07 18:23:47;;;;;;;;;51.25;39.25;;;;;;;;4676596;30;45590;-64
2022/12/07 18:26:12;;;;;;;;;47.25;37.50;;;;;;;;4679255;30;47031;-64
2022/12/07 18:28:38;;;;;;;;;47.75;36.75;;;;;;;;4682961;30;45421;-65
2022/12/07 18:31:03;;;;;;;;;38.00;33.00;;;;;;;;4676179;30;45500;-65
2022/12/07 18:33:28;;;;;;;;;40.75;33.25;;;;;;;;4683949;30;46362;-65
2022/12/07 18:35:53;;;;;;;;;32.33;30.00;;;;;;;;4681885;30;46066;-64
2022/12/07 18:38:19;;;;;;;;;39.75;34.25;;;;;;;;4683587;30;45319;-65
2022/12/07 18:40:45;;;;;;;;;40.50;34.50;;;;;;;;4682579;30;45483;-65
2022/12/07 18:43:10;;;;;;;;;33.25;30.50;;;;;;;;4681644;30;45383;-64
2022/12/07 18:45:40;;;;;;;;;40.25;34.25;;;;;;;;4679634;30;46138;-65
2022/12/07 18:48:05;;;;;;;;;34.00;33.00;;;;;;;;4682012;30;45270;-65
2022/12/07 18:50:30;;;;;;;;;31.67;30.67;;;;;;;;4679277;30;45577;-65
2022/12/07 18:53:00;;;;;;;;;28.33;24.67;;;;;;;;4681775;30;45457;-65
2022/12/07 18:55:26;;;;;;;;;32.67;28.33;;;;;;;;4678230;30;45319;-65
2022/12/07 18:57:51;;;;;;;;;32.67;27.33;;;;;;;;4685241;30;45464;-64
2022/12/07 19:00:17;;;;;;;;;36.00;31.00;;;;;;;;4675277;30;45861;-65
2022/12/07 19:02:42;;;;;;;;;30.33;26.33;;;;;;;;4671640;30;45416;-64
2022/12/07 19:05:08;;;;;;;;;23.33;23.33;;;;;;;;4682551;30;45860;-64
2022/12/07 19:07:33;;;;;;;;;28.33;26.33;;;;;;;;4673655;30;45364;-64
2022/12/07 19:09:58;;;;;;;;;33.33;27.67;;;;;;;;4679533;30;45559;-64
2022/12/07 19:12:23;;;;;;;;;28.00;25.67;;;;;;;;4678559;30;45508;-64
2022/12/07 19:14:48;;;;;;;;;37.00;27.00;;;;;;;;4678005;30;46045;-64
2022/12/07 19:17:14;;;;;;;;;34.00;31.67;;;;;;;;4680803;30;45441;-64
2022/12/07 19:19:43;;;;;;;;;30.33;27.33;;;;;;;;4676828;30;45413;-64
2022/12/07 19:22:09;;;;;;;;;31.75;30.50;;;;;;;;4679562;30;45457;-64
2022/12/07 19:24:34;;;;;;;;;101.75;87.50;;;;;;;;4681035;30;46199;-64
2022/12/07 19:27:00;;;;;;;;;82.75;64.25;;;;;;;;4683055;30;45316;-64
2022/12/07 19:29:29;;;;;;;;;59.75;49.00;;;;;;;;4680053;30;45521;-64
2022/12/07 19:31:55;;;;;;;;;60.50;47.75;;;;;;;;4683868;30;45238;-65
2022/12/07 19:34:20;;;;;;;;;47.25;35.50;;;;;;;;4682502;30;46084;-64
2022/12/07 19:36:45;;;;;;;;;47.25;40.00;;;;;;;;4683768;30;45651;-64
2022/12/07 19:39:10;;;;;;;;;48.25;36.75;;;;;;;;4675339;30;45432;-64
2022/12/07 19:41:38;;;;;;;;;43.25;35.25;;;;;;;;4675002;30;45463;-63
2022/12/07 19:44:04;;;;;;;;;47.25;38.75;;;;;;;;4678067;30;46946;-64
2022/12/07 19:46:30;;;;;;;;;45.50;37.25;;;;;;;;4674401;30;47374;-64
2022/12/07 19:48:56;;;;;;;;;48.00;38.50;;;;;;;;4681027;30;45628;-64
2022/12/07 19:51:21;;;;;;;;;47.25;39.25;;;;;;;;4675242;30;45653;-62
2022/12/07 19:53:47;;;;;;;;;32.25;29.00;;;;;;;;4677544;30;45436;-64
2022/12/07 19:56:15;;;;;;;;;43.75;36.75;;;;;;;;4674757;30;45516;-64
2022/12/07 19:58:41;;;;;;;;;41.00;37.00;;;;;;;;4684445;30;45480;-64